Time;durP1;ratioP1;P1;durP2;ratioP2;P2;SDS_P1;SDS_P2;PMS_P1;PMS_P2;Temp;Humidity;BMP_temperature;BMP_pressure;BME280_temperature;BME280_humidity;BME280_pressure;Samples;Min_cycle;Max_cycle;Signal;HPM_P1;HPM_P2
2023/09/25 00:01:15;;;;;;;1.40;0.88;;;11.20;99.90;;;;;;4886700;29;20529;-70
2023/09/25 00:03:41;;;;;;;2.55;0.95;;;11.10;99.90;;;;;;4889496;29;20040;-70
2023/09/25 00:06:06;;;;;;;1.58;0.60;;;11.10;99.90;;;;;;4861844;29;20482;-69
2023/09/25 00:08:32;;;;;;;1.25;0.70;;;11.10;99.90;;;;;;4868978;29;20037;-69
2023/09/25 00:10:58;;;;;;;2.40;0.93;;;11.10;99.90;;;;;;4870055;29;20060;-69
2023/09/25 00:13:23;;;;;;;1.10;0.70;;;11.10;99.90;;;;;;4877357;29;20037;-69
2023/09/25 00:15:49;;;;;;;1.45;0.55;;;11.10;99.90;;;;;;4879874;29;20043;-70
2023/09/25 00:18:15;;;;;;;1.75;0.80;;;11.10;99.90;;;;;;4881445;29;20044;-70
2023/09/25 00:20:42;;;;;;;0.90;0.60;;;11.10;99.90;;;;;;4887098;29;20501;-70
2023/09/25 00:23:08;;;;;;;3.30;1.58;;;11.10;99.90;;;;;;4881127;29;20127;-71
2023/09/25 00:25:34;;;;;;;2.45;0.77;;;11.20;99.90;;;;;;4887306;29;20041;-71
2023/09/25 00:28:01;;;;;;;3.72;0.98;;;11.20;99.90;;;;;;4895689;29;20504;-71
2023/09/25 00:30:27;;;;;;;1.38;0.85;;;11.10;99.90;;;;;;4872987;29;20115;-71
2023/09/25 00:32:52;;;;;;;1.25;0.47;;;11.10;99.90;;;;;;4878170;29;20109;-71
2023/09/25 00:35:20;;;;;;;2.17;1.00;;;11.10;99.90;;;;;;4868243;29;20043;-71
2023/09/25 00:37:47;;;;;;;1.33;0.60;;;11.00;99.90;;;;;;4885717;29;20459;-71
2023/09/25 00:40:13;;;;;;;0.50;0.43;;;11.00;99.90;;;;;;4874111;29;20044;-71
2023/09/25 00:42:50;;;;;;;2.60;0.98;;;11.10;99.90;;;;;;4894267;29;20025;-71
2023/09/25 00:45:16;;;;;;;0.82;0.40;;;11.00;99.90;;;;;;4867611;29;20486;-71
2023/09/25 00:47:43;;;;;;;4.70;1.05;;;11.00;99.90;;;;;;4895111;29;20512;-70
2023/09/25 00:50:10;;;;;;;2.20;1.00;;;10.90;99.90;;;;;;4879739;29;20124;-71
2023/09/25 00:52:43;;;;;;;1.95;1.00;;;10.90;99.90;;;;;;4887507;29;20077;-70
2023/09/25 00:55:11;;;;;;;3.13;1.02;;;10.90;99.90;;;;;;4863063;29;20069;-70
2023/09/25 00:57:39;;;;;;;3.60;1.15;;;10.70;99.90;;;;;;4895060;29;20033;-70
2023/09/25 01:00:11;;;;;;;3.70;0.90;;;10.70;99.90;;;;;;4878486;29;20037;-70
2023/09/25 01:02:38;;;;;;;1.45;0.98;;;10.60;99.90;;;;;;4894304;29;20033;-70
2023/09/25 01:05:08;;;;;;;1.52;0.90;;;10.60;99.90;;;;;;4882535;29;20076;-70
2023/09/25 01:07:37;;;;;;;2.10;1.00;;;10.60;99.90;;;;;;4885811;29;20036;-69
2023/09/25 01:10:08;;;;;;;2.38;0.93;;;10.60;99.90;;;;;;4879989;29;20085;-70
2023/09/25 01:12:37;;;;;;;2.03;0.97;;;10.60;99.90;;;;;;4882096;29;20075;-70
2023/09/25 01:15:04;;;;;;;2.83;1.15;;;10.60;99.90;;;;;;4872072;29;20417;-70
2023/09/25 01:17:31;;;;;;;2.03;1.20;;;10.60;99.90;;;;;;4880198;29;20489;-70
2023/09/25 01:19:58;;;;;;;1.77;0.80;;;10.50;99.90;;;;;;4878428;29;20045;-70
2023/09/25 01:22:25;;;;;;;2.42;1.35;;;10.40;99.90;;;;;;4880090;29;20044;-70
2023/09/25 01:24:51;;;;;;;4.32;0.90;;;10.50;99.90;;;;;;4877811;29;20037;-70
2023/09/25 01:27:17;;;;;;;1.42;0.77;;;10.40;99.90;;;;;;4879262;29;20040;-70
2023/09/25 01:29:43;;;;;;;1.58;0.70;;;10.40;99.90;;;;;;4878330;29;20041;-70
2023/09/25 01:32:08;;;;;;;1.80;0.90;;;10.40;99.90;;;;;;4894579;29;20052;-70
2023/09/25 01:34:34;;;;;;;1.52;0.90;;;10.30;99.90;;;;;;4878783;29;20040;-70
2023/09/25 01:37:04;;;;;;;0.80;0.60;;;10.30;99.90;;;;;;4894207;29;20037;-70
2023/09/25 01:39:35;;;;;;;2.15;0.98;;;10.20;99.90;;;;;;4879194;29;20043;-70
2023/09/25 01:42:02;;;;;;;3.95;0.77;;;10.10;99.90;;;;;;4887151;29;20046;-70
2023/09/25 01:44:28;;;;;;;1.45;0.90;;;10.10;99.90;;;;;;4870187;29;20053;-70
2023/09/25 01:46:56;;;;;;;1.25;0.68;;;9.80;99.90;;;;;;4893312;29;20339;-70
2023/09/25 01:49:23;;;;;;;1.88;0.70;;;9.80;99.90;;;;;;4886828;29;20451;-70
2023/09/25 01:51:49;;;;;;;2.03;0.70;;;9.80;99.90;;;;;;4892897;29;20029;-70
2023/09/25 01:54:15;;;;;;;1.80;1.00;;;10.00;99.90;;;;;;4887328;29;20033;-70
2023/09/25 01:56:41;;;;;;;1.52;0.90;;;9.90;99.90;;;;;;4891827;29;20044;-70
2023/09/25 01:59:07;;;;;;;4.85;1.02;;;9.90;99.90;;;;;;4888832;29;20037;-70
2023/09/25 02:01:33;;;;;;;0.77;0.45;;;9.80;99.90;;;;;;4890643;29;20467;-70
2023/09/25 02:03:58;;;;;;;1.83;0.75;;;9.80;99.90;;;;;;4889141;29;20041;-69
2023/09/25 02:06:24;;;;;;;1.98;1.02;;;9.80;99.90;;;;;;4875278;29;20029;-70
2023/09/25 02:08:50;;;;;;;1.45;0.75;;;9.90;99.90;;;;;;4890868;29;20036;-69
2023/09/25 02:11:15;;;;;;;1.77;0.85;;;9.90;99.90;;;;;;4874189;29;20052;-69
2023/09/25 02:13:41;;;;;;;3.58;1.33;;;9.80;99.90;;;;;;4876889;29;20121;-69
2023/09/25 02:16:07;;;;;;;1.27;0.55;;;9.80;99.90;;;;;;4875309;29;20051;-69
2023/09/25 02:18:32;;;;;;;1.13;0.63;;;9.70;99.90;;;;;;4892801;29;20111;-69
2023/09/25 02:20:58;;;;;;;3.90;1.20;;;9.50;99.90;;;;;;4863503;29;20136;-69
2023/09/25 02:23:24;;;;;;;4.20;1.13;;;9.30;99.90;;;;;;4883870;29;20033;-69
2023/09/25 02:25:50;;;;;;;2.97;1.20;;;9.30;99.90;;;;;;4884722;29;20467;-69
2023/09/25 02:28:15;;;;;;;1.73;0.80;;;9.30;99.90;;;;;;4893396;29;20371;-70
2023/09/25 02:30:41;;;;;;;1.80;0.93;;;9.40;99.90;;;;;;4884778;29;20108;-70
2023/09/25 02:33:07;;;;;;;2.13;0.90;;;9.50;99.90;;;;;;4893114;29;20383;-70
2023/09/25 02:35:33;;;;;;;3.55;1.38;;;9.60;99.90;;;;;;4884433;29;20504;-70
2023/09/25 02:37:59;;;;;;;0.77;0.77;;;9.70;99.90;;;;;;4877775;29;20081;-70
2023/09/25 02:40:25;;;;;;;2.10;1.10;;;9.80;99.90;;;;;;4884517;29;20479;-69
2023/09/25 02:42:51;;;;;;;1.95;0.90;;;10.00;99.90;;;;;;4892730;29;20037;-70
2023/09/25 02:45:17;;;;;;;1.98;1.10;;;10.10;99.90;;;;;;4870036;29;20491;-71
2023/09/25 02:47:44;;;;;;;2.10;1.05;;;10.30;99.90;;;;;;4892472;29;20037;-71
2023/09/25 02:50:10;;;;;;;5.30;1.25;;;10.40;99.90;;;;;;4891961;29;20091;-71
2023/09/25 02:52:36;;;;;;;2.90;1.25;;;10.50;99.90;;;;;;4892794;29;20085;-69
2023/09/25 02:55:03;;;;;;;5.00;1.38;;;10.50;99.90;;;;;;4869651;29;20044;-70
2023/09/25 02:57:29;;;;;;;1.95;1.17;;;10.50;99.90;;;;;;4877417;29;20092;-70
2023/09/25 02:59:55;;;;;;;4.38;1.73;;;10.50;99.90;;;;;;4891445;29;20049;-71
2023/09/25 03:02:21;;;;;;;2.80;1.10;;;10.50;99.90;;;;;;4876884;29;20032;-71
2023/09/25 03:04:48;;;;;;;3.63;2.00;;;10.50;99.90;;;;;;4883465;29;20616;-69
2023/09/25 03:07:13;;;;;;;1.50;0.95;;;10.50;99.90;;;;;;4892223;29;20378;-70
2023/09/25 03:09:39;;;;;;;2.22;1.20;;;10.50;99.90;;;;;;4877352;29;20036;-71
2023/09/25 03:12:05;;;;;;;3.10;1.52;;;10.50;99.90;;;;;;4878400;29;20028;-71
2023/09/25 03:14:31;;;;;;;2.72;1.38;;;10.40;99.90;;;;;;4872250;29;20113;-70
2023/09/25 03:16:57;;;;;;;2.78;1.70;;;10.40;99.90;;;;;;4878230;29;20180;-69
2023/09/25 03:19:22;;;;;;;4.35;1.70;;;10.40;99.90;;;;;;4885273;29;20290;-69
2023/09/25 03:21:48;;;;;;;2.97;1.50;;;10.30;99.90;;;;;;4876622;29;20036;-69
2023/09/25 03:24:14;;;;;;;1.83;1.10;;;10.20;99.90;;;;;;4871521;29;20045;-71
2023/09/25 03:26:40;;;;;;;2.92;1.52;;;10.30;99.90;;;;;;4875249;29;20127;-70
2023/09/25 03:29:06;;;;;;;7.72;1.67;;;10.30;99.90;;;;;;4886536;29;20033;-70
2023/09/25 03:31:33;;;;;;;2.58;1.27;;;10.30;99.90;;;;;;4888637;29;20029;-70
2023/09/25 03:33:59;;;;;;;3.45;1.67;;;10.30;99.90;;;;;;4872933;29;20034;-70
2023/09/25 03:36:26;;;;;;;5.70;1.88;;;10.40;99.90;;;;;;4887704;29;20071;-70
2023/09/25 03:38:52;;;;;;;7.72;1.92;;;10.40;99.90;;;;;;4888868;29;20136;-70
2023/09/25 03:41:18;;;;;;;3.80;1.80;;;10.40;99.90;;;;;;4886646;29;20734;-70
2023/09/25 03:43:43;;;;;;;2.67;1.45;;;10.40;99.90;;;;;;4875299;29;20025;-71
2023/09/25 03:46:09;;;;;;;4.28;1.50;;;10.40;99.90;;;;;;4871402;29;20064;-70
2023/09/25 03:48:35;;;;;;;3.25;2.05;;;10.50;99.90;;;;;;4875958;29;20025;-70
2023/09/25 03:51:01;;;;;;;3.30;1.58;;;10.40;99.90;;;;;;4884616;29;20351;-70
2023/09/25 03:53:26;;;;;;;2.13;1.15;;;10.40;99.90;;;;;;4877273;29;20068;-70
2023/09/25 03:55:52;;;;;;;2.28;1.15;;;10.30;99.90;;;;;;4876920;29;20036;-70
2023/09/25 03:58:18;;;;;;;2.30;1.48;;;10.30;99.90;;;;;;4891808;29;20354;-70
2023/09/25 04:00:44;;;;;;;3.58;1.35;;;10.30;99.90;;;;;;4882858;29;20033;-70
2023/09/25 04:03:10;;;;;;;2.80;1.40;;;10.40;99.90;;;;;;4877326;29;20046;-70
2023/09/25 04:05:36;;;;;;;2.88;1.63;;;10.40;99.90;;;;;;4884365;29;20507;-71
2023/09/25 04:08:01;;;;;;;7.57;1.60;;;10.40;99.90;;;;;;4894621;29;20040;-70
2023/09/25 04:10:27;;;;;;;4.40;1.60;;;10.40;99.90;;;;;;4883893;29;20366;-70
2023/09/25 04:12:55;;;;;;;3.53;1.52;;;10.40;99.90;;;;;;4891623;29;20065;-70
2023/09/25 04:15:25;;;;;;;3.88;1.40;;;10.30;99.90;;;;;;4879117;29;20030;-70
2023/09/25 04:17:51;;;;;;;3.78;1.75;;;10.30;99.90;;;;;;4876313;29;20041;-70
2023/09/25 04:20:17;;;;;;;2.00;1.08;;;10.20;99.90;;;;;;4868648;29;20466;-70
2023/09/25 04:22:47;;;;;;;3.13;1.50;;;10.10;99.90;;;;;;4878581;29;20044;-70
2023/09/25 04:25:18;;;;;;;9.15;3.67;;;10.00;99.90;;;;;;4877649;29;20105;-70
2023/09/25 04:27:50;;;;;;;9.07;3.80;;;10.00;99.90;;;;;;4890619;29;20037;-71
2023/09/25 04:30:20;;;;;;;3.42;1.58;;;9.80;99.90;;;;;;4876324;29;20022;-69
2023/09/25 04:32:48;;;;;;;3.83;2.08;;;9.90;99.90;;;;;;4891055;29;20134;-69
2023/09/25 04:35:15;;;;;;;8.55;3.78;;;10.00;99.90;;;;;;4881789;29;20490;-70
2023/09/25 04:37:42;;;;;;;2.17;1.05;;;9.90;99.90;;;;;;4891243;29;20397;-70
2023/09/25 04:40:22;;;;;;;4.03;2.47;;;9.90;99.90;;;;;;4868900;29;20053;-70
2023/09/25 04:42:53;;;;;;;3.08;1.48;;;9.80;99.90;;;;;;4876006;29;20061;-70
2023/09/25 04:45:19;;;;;;;4.65;2.67;;;9.80;99.90;;;;;;4881635;29;20116;-70
2023/09/25 04:47:47;;;;;;;3.17;1.48;;;9.80;99.90;;;;;;4891064;29;20045;-70
2023/09/25 04:50:13;;;;;;;3.22;1.60;;;9.80;99.90;;;;;;4876736;29;20068;-71
2023/09/25 04:52:41;;;;;;;4.60;1.50;;;9.90;99.90;;;;;;4876799;29;20036;-71
2023/09/25 04:55:10;;;;;;;7.40;1.98;;;10.00;99.90;;;;;;4868123;29;20044;-71
2023/09/25 04:57:44;;;;;;;6.40;2.20;;;10.00;99.90;;;;;;4890522;29;20092;-72
2023/09/25 05:00:24;;;;;;;2.55;1.25;;;10.00;99.90;;;;;;4881940;29;20037;-70
2023/09/25 05:02:52;;;;;;;6.78;1.48;;;9.80;99.90;;;;;;4880024;29;20112;-70
2023/09/25 05:05:18;;;;;;;6.40;2.22;;;9.70;99.90;;;;;;4884780;29;20498;-69
2023/09/25 05:07:49;;;;;;;3.97;1.80;;;9.70;99.90;;;;;;4894580;29;20044;-69
2023/09/25 05:10:21;;;;;;;3.60;2.08;;;9.70;99.90;;;;;;4877477;29;20034;-68
2023/09/25 05:12:47;;;;;;;7.03;2.85;;;9.70;99.90;;;;;;4861415;29;20041;-68
2023/09/25 05:15:15;;;;;;;5.00;1.80;;;9.70;99.90;;;;;;4882908;29;20041;-67
2023/09/25 05:17:43;;;;;;;3.47;1.90;;;9.80;99.90;;;;;;4857080;29;20513;-67
2023/09/25 05:20:22;;;;;;;14.73;1.83;;;9.80;99.90;;;;;;4874515;29;20063;-68
2023/09/25 05:22:50;;;;;;;7.38;2.47;;;9.80;99.90;;;;;;4874392;29;20067;-68
2023/09/25 05:25:18;;;;;;;5.80;2.25;;;9.80;99.90;;;;;;4874159;29;20052;-68
2023/09/25 05:27:48;;;;;;;3.17;1.83;;;9.80;99.90;;;;;;4875270;29;20102;-68
2023/09/25 05:30:17;;;;;;;3.53;1.60;;;10.00;99.90;;;;;;4874970;29;20033;-69
2023/09/25 05:32:48;;;;;;;3.15;1.65;;;10.10;99.90;;;;;;4874714;29;20061;-69
2023/09/25 05:35:15;;;;;;;2.20;1.27;;;10.10;99.90;;;;;;4852162;29;20044;-69
2023/09/25 05:37:42;;;;;;;2.78;2.00;;;10.10;99.90;;;;;;4868842;29;20033;-69
2023/09/25 05:40:11;;;;;;;6.13;1.75;;;10.10;99.90;;;;;;4859147;29;20398;-69
2023/09/25 05:42:50;;;;;;;9.85;2.42;;;10.10;99.90;;;;;;4872244;29;20086;-69
2023/09/25 05:45:22;;;;;;;4.97;2.88;;;10.10;99.90;;;;;;4874054;29;20106;-69
2023/09/25 05:47:48;;;;;;;6.15;1.63;;;10.10;99.90;;;;;;4874576;29;20041;-69
2023/09/25 05:50:14;;;;;;;2.63;1.65;;;10.20;99.90;;;;;;4874475;29;20038;-69
2023/09/25 05:52:40;;;;;;;4.05;1.83;;;10.30;99.90;;;;;;4860480;29;20115;-69
2023/09/25 05:55:08;;;;;;;3.65;1.52;;;10.30;99.90;;;;;;4874867;29;20034;-69
2023/09/25 05:57:34;;;;;;;3.63;1.90;;;10.30;99.90;;;;;;4860409;29;20102;-69
2023/09/25 06:00:03;;;;;;;3.80;1.83;;;10.40;99.90;;;;;;4853584;29;20124;-69
2023/09/25 06:02:33;;;;;;;3.50;1.60;;;10.30;99.90;;;;;;4860461;29;20109;-68
2023/09/25 06:04:59;;;;;;;6.35;2.15;;;10.30;99.90;;;;;;4873219;29;20105;-68
2023/09/25 06:07:25;;;;;;;3.03;1.63;;;10.30;99.90;;;;;;4874386;29;20040;-68
2023/09/25 06:09:50;;;;;;;3.55;2.05;;;10.40;99.90;;;;;;4876241;29;20042;-68
2023/09/25 06:12:16;;;;;;;3.55;1.65;;;10.30;99.90;;;;;;4891507;29;20033;-68
2023/09/25 06:14:42;;;;;;;3.72;2.20;;;10.30;99.90;;;;;;4882474;29;20030;-68
2023/09/25 06:17:09;;;;;;;5.50;1.98;;;10.30;99.90;;;;;;4860403;29;20104;-69
2023/09/25 06:19:36;;;;;;;2.80;1.90;;;10.40;99.90;;;;;;4860370;29;20042;-69
2023/09/25 06:22:02;;;;;;;3.67;1.80;;;10.40;99.90;;;;;;4867627;29;20041;-68
2023/09/25 06:24:28;;;;;;;4.07;2.25;;;10.40;99.90;;;;;;4860038;29;20451;-68
2023/09/25 06:26:54;;;;;;;3.97;1.52;;;10.50;99.90;;;;;;4884461;29;20037;-68
2023/09/25 06:29:23;;;;;;;4.40;1.70;;;10.50;99.90;;;;;;4872132;29;20037;-68
2023/09/25 06:31:48;;;;;;;4.70;1.98;;;10.60;99.90;;;;;;4875689;29;20040;-68
2023/09/25 06:34:14;;;;;;;2.30;1.60;;;10.60;99.90;;;;;;4871120;29;20417;-69
2023/09/25 06:36:40;;;;;;;4.05;2.33;;;10.60;99.90;;;;;;4871293;29;20085;-68
2023/09/25 06:39:06;;;;;;;4.00;2.08;;;10.70;99.90;;;;;;4859640;29;20116;-68
2023/09/25 06:41:33;;;;;;;4.75;1.50;;;10.80;99.90;;;;;;4859886;29;20101;-69
2023/09/25 06:43:59;;;;;;;2.85;1.42;;;10.80;99.90;;;;;;4873424;29;20415;-68
2023/09/25 06:46:25;;;;;;;2.72;1.65;;;10.80;99.90;;;;;;4859717;29;20049;-68
2023/09/25 06:48:51;;;;;;;2.72;1.73;;;10.90;99.90;;;;;;4881012;29;20041;-69
2023/09/25 06:51:20;;;;;;;4.40;2.28;;;10.90;99.90;;;;;;4887214;29;20025;-68
2023/09/25 06:53:45;;;;;;;3.35;1.40;;;11.00;99.90;;;;;;4875171;29;20253;-68
2023/09/25 06:56:11;;;;;;;6.80;2.22;;;11.00;99.90;;;;;;4872518;29;20419;-69
2023/09/25 06:58:39;;;;;;;3.00;1.80;;;11.00;99.90;;;;;;4862574;29;20037;-68
2023/09/25 07:01:05;;;;;;;7.20;2.55;;;11.10;99.90;;;;;;4873911;29;20094;-69
2023/09/25 07:03:31;;;;;;;4.05;2.28;;;11.10;99.90;;;;;;4867071;29;20057;-69
2023/09/25 07:05:57;;;;;;;4.25;2.20;;;11.20;99.90;;;;;;4862500;29;20044;-69
2023/09/25 07:08:25;;;;;;;7.43;1.83;;;11.20;99.90;;;;;;4885875;29;20025;-68
2023/09/25 07:10:51;;;;;;;3.90;2.17;;;11.20;99.90;;;;;;4874933;29;20068;-68
2023/09/25 07:13:17;;;;;;;4.50;1.75;;;11.40;99.90;;;;;;4877082;29;20065;-70
2023/09/25 07:15:45;;;;;;;7.50;2.38;;;11.40;99.90;;;;;;4859311;29;20041;-68
2023/09/25 07:18:11;;;;;;;4.40;2.38;;;11.50;99.90;;;;;;4862786;29;20029;-68
2023/09/25 07:20:37;;;;;;;3.72;2.03;;;11.50;99.90;;;;;;4874767;29;20501;-68
2023/09/25 07:23:03;;;;;;;4.00;2.97;;;11.60;99.90;;;;;;4858699;29;20117;-68
2023/09/25 07:25:29;;;;;;;5.35;1.88;;;11.70;99.90;;;;;;4865635;29;20124;-67
2023/09/25 07:27:55;;;;;;;8.27;1.95;;;11.80;99.90;;;;;;4861225;29;20151;-67
2023/09/25 07:30:21;;;;;;;6.55;2.30;;;11.80;99.90;;;;;;4876274;29;20112;-68
2023/09/25 07:32:48;;;;;;;8.75;2.10;;;11.90;99.90;;;;;;4873215;29;20477;-68
2023/09/25 07:35:15;;;;;;;5.00;2.30;;;12.00;99.90;;;;;;4863128;29;20033;-68
2023/09/25 07:37:42;;;;;;;4.97;2.20;;;12.10;99.90;;;;;;4891747;29;20631;-68
2023/09/25 07:40:12;;;;;;;5.28;2.03;;;12.10;99.90;;;;;;4881712;29;20037;-68
2023/09/25 07:42:38;;;;;;;2.72;1.48;;;12.20;99.90;;;;;;4875883;29;20041;-69
2023/09/25 07:45:09;;;;;;;13.05;1.73;;;12.30;99.90;;;;;;4858145;29;20064;-68
2023/09/25 07:47:38;;;;;;;9.15;1.80;;;12.40;99.90;;;;;;4857429;29;20521;-69
2023/09/25 07:50:10;;;;;;;8.77;1.60;;;12.50;99.90;;;;;;4872038;29;20037;-68
2023/09/25 07:52:38;;;;;;;5.25;1.52;;;12.60;99.90;;;;;;4857394;29;20038;-69
2023/09/25 07:55:10;;;;;;;3.85;1.38;;;12.70;99.90;;;;;;4874858;29;20100;-68
2023/09/25 07:57:42;;;;;;;4.60;1.45;;;12.80;99.90;;;;;;4875280;29;20034;-69
2023/09/25 08:00:24;;;;;;;5.25;1.90;;;13.00;99.90;;;;;;4875880;29;20060;-69
2023/09/25 08:02:51;;;;;;;3.60;1.75;;;13.10;99.90;;;;;;4861851;29;20440;-69
2023/09/25 08:05:22;;;;;;;3.42;1.73;;;13.20;99.90;;;;;;4863117;29;20045;-69
2023/09/25 08:07:52;;;;;;;3.83;1.73;;;13.30;99.90;;;;;;4858581;29;20061;-69
2023/09/25 08:10:18;;;;;;;2.50;1.47;;;13.50;99.90;;;;;;4871694;29;20034;-67
2023/09/25 08:12:45;;;;;;;5.20;2.25;;;13.60;99.90;;;;;;4858502;29;20686;-68
2023/09/25 08:15:11;;;;;;;2.00;1.20;;;13.70;99.90;;;;;;4884066;29;20040;-69
2023/09/25 08:17:41;;;;;;;1.67;1.13;;;13.90;99.90;;;;;;4891304;29;20068;-69
2023/09/25 08:20:14;;;;;;;3.28;1.50;;;14.00;99.90;;;;;;4889074;29;20048;-68
2023/09/25 08:22:43;;;;;;;2.22;1.77;;;14.20;99.90;;;;;;4863408;29;20085;-67
2023/09/25 08:25:10;;;;;;;1.73;1.23;;;14.20;99.90;;;;;;4888856;29;20037;-68
2023/09/25 08:27:39;;;;;;;6.55;1.45;;;14.30;99.90;;;;;;4863579;29;20037;-68
2023/09/25 08:30:07;;;;;;;2.35;1.20;;;14.50;99.90;;;;;;4865171;29;20162;-67
2023/09/25 08:32:33;;;;;;;2.65;1.55;;;14.50;99.90;;;;;;4872366;29;20061;-69
2023/09/25 08:34:59;;;;;;;3.80;1.33;;;14.70;99.90;;;;;;4858757;29;20065;-68
2023/09/25 08:37:25;;;;;;;4.88;1.38;;;14.80;99.90;;;;;;4876234;29;20049;-68
2023/09/25 08:39:55;;;;;;;3.97;1.70;;;15.00;99.90;;;;;;4875299;29;20045;-68
2023/09/25 08:42:23;;;;;;;3.00;1.55;;;15.20;99.90;;;;;;4876265;29;20148;-68
2023/09/25 08:44:52;;;;;;;5.03;1.38;;;15.30;99.90;;;;;;4875218;29;20038;-67
2023/09/25 08:47:22;;;;;;;2.88;1.60;;;15.50;99.90;;;;;;4875934;29;20109;-67
2023/09/25 08:49:52;;;;;;;6.65;1.55;;;15.60;99.90;;;;;;4861498;29;20090;-68
2023/09/25 08:52:21;;;;;;;3.33;1.47;;;15.80;99.90;;;;;;4871758;29;20033;-68
2023/09/25 08:54:50;;;;;;;5.78;1.48;;;16.00;99.90;;;;;;4874553;29;20041;-67
2023/09/25 08:57:18;;;;;;;11.95;1.65;;;16.00;99.90;;;;;;4861716;29;20041;-68
2023/09/25 08:59:47;;;;;;;4.47;1.63;;;16.00;99.90;;;;;;4874052;29;20072;-68
2023/09/25 09:02:14;;;;;;;4.15;1.73;;;16.20;99.90;;;;;;4874871;29;20124;-68
2023/09/25 09:04:40;;;;;;;3.47;1.92;;;16.30;99.90;;;;;;4859089;29;20029;-68
2023/09/25 09:07:10;;;;;;;5.35;2.10;;;16.60;99.90;;;;;;4883579;29;20424;-68
2023/09/25 09:09:38;;;;;;;3.33;1.30;;;16.80;99.90;;;;;;4874580;29;20117;-67
2023/09/25 09:12:05;;;;;;;4.55;1.33;;;17.10;99.90;;;;;;4854182;29;20290;-70
2023/09/25 09:14:43;;;;;;;2.40;1.08;;;17.30;99.90;;;;;;4874097;29;20049;-68
2023/09/25 09:17:11;;;;;;;8.18;1.75;;;17.50;99.90;;;;;;4867408;29;20455;-67
2023/09/25 09:19:52;;;;;;;1.90;1.00;;;17.60;99.90;;;;;;4860719;29;20414;-68
2023/09/25 09:22:19;;;;;;;3.83;1.25;;;17.80;99.90;;;;;;4875265;29;20090;-68
2023/09/25 09:24:45;;;;;;;2.88;0.98;;;17.80;99.90;;;;;;4860868;29;20459;-68
2023/09/25 09:27:14;;;;;;;6.00;1.52;;;17.90;99.90;;;;;;4875407;29;20062;-68
2023/09/25 09:29:42;;;;;;;7.25;1.60;;;18.20;99.90;;;;;;4873688;29;20029;-68
2023/09/25 09:32:09;;;;;;;2.45;1.00;;;17.90;99.90;;;;;;4860750;29;20025;-68
2023/09/25 09:34:38;;;;;;;4.85;1.00;;;18.10;99.90;;;;;;4859433;29;20041;-68
2023/09/25 09:37:10;;;;;;;1.13;0.75;;;18.30;99.90;;;;;;4873579;29;20033;-67
2023/09/25 09:39:37;;;;;;;3.63;1.23;;;18.40;99.90;;;;;;4872693;29;20137;-67
2023/09/25 09:42:08;;;;;;;4.18;0.75;;;18.70;99.90;;;;;;4876584;29;20033;-67
2023/09/25 09:44:35;;;;;;;2.20;0.98;;;19.00;99.90;;;;;;4891008;29;20502;-67
2023/09/25 09:47:07;;;;;;;2.47;1.10;;;19.00;99.90;;;;;;4892652;29;20040;-67
2023/09/25 09:49:39;;;;;;;2.53;1.08;;;19.10;99.90;;;;;;4859210;29;20070;-68
2023/09/25 09:52:06;;;;;;;2.58;0.90;;;19.20;99.90;;;;;;4870433;29;20032;-68
2023/09/25 09:54:36;;;;;;;1.52;0.63;;;19.30;99.90;;;;;;4880589;29;20463;-68
2023/09/25 09:57:03;;;;;;;2.80;1.30;;;19.30;99.90;;;;;;4860416;29;20037;-68
2023/09/25 09:59:29;;;;;;;0.65;0.47;;;19.40;99.90;;;;;;4860520;29;20037;-68
2023/09/25 10:01:57;;;;;;;2.65;1.13;;;19.40;99.90;;;;;;4860465;29;20084;-67
2023/09/25 10:04:26;;;;;;;3.13;0.68;;;19.70;99.90;;;;;;4872611;29;20037;-68
2023/09/25 10:07:04;;;;;;;3.97;1.27;;;19.80;99.90;;;;;;4881248;29;20033;-68
2023/09/25 10:09:31;;;;;;;1.67;0.88;;;19.80;98.20;;;;;;4867431;29;20040;-68
2023/09/25 10:11:58;;;;;;;1.08;0.57;;;20.00;95.00;;;;;;4866537;29;20037;-69
2023/09/25 10:14:26;;;;;;;1.50;0.73;;;20.10;95.80;;;;;;4879346;29;20029;-68
2023/09/25 10:17:05;;;;;;;1.83;1.00;;;20.10;95.40;;;;;;4860258;29;20033;-68
2023/09/25 10:19:37;;;;;;;1.05;0.70;;;20.00;96.50;;;;;;4873340;29;20123;-68
2023/09/25 10:22:19;;;;;;;2.95;1.02;;;20.10;96.30;;;;;;4853055;29;20386;-68
2023/09/25 10:25:01;;;;;;;2.15;0.88;;;20.40;97.90;;;;;;4860312;29;20045;-69
2023/09/25 10:27:31;;;;;;;2.33;0.80;;;20.70;95.80;;;;;;4873879;29;20889;-69
2023/09/25 10:30:14;;;;;;;2.35;0.82;;;20.50;95.80;;;;;;4889956;29;20036;-69
2023/09/25 10:32:48;;;;;;;3.13;0.85;;;20.90;95.50;;;;;;4892998;29;20064;-69
2023/09/25 10:35:49;;;;;;;2.35;1.08;;;20.80;92.60;;;;;;4891012;29;20031;-68
2023/09/25 10:38:28;;;;;;;2.22;0.88;;;20.30;93.50;;;;;;4874547;29;20094;-69
2023/09/25 10:40:58;;;;;;;1.77;0.93;;;20.90;95.30;;;;;;4873570;29;20033;-69
2023/09/25 10:43:25;;;;;;;2.23;0.77;;;21.40;93.60;;;;;;4859697;29;20034;-69
2023/09/25 10:45:53;;;;;;;1.90;0.82;;;21.20;92.10;;;;;;4858542;29;20044;-69
2023/09/25 10:48:20;;;;;;;2.58;1.02;;;21.40;93.90;;;;;;4878922;29;20029;-67
2023/09/25 10:50:47;;;;;;;2.97;1.08;;;21.00;92.50;;;;;;4873615;29;20037;-68
2023/09/25 10:53:14;;;;;;;3.25;0.95;;;21.60;91.80;;;;;;4856412;29;20030;-69
2023/09/25 10:55:40;;;;;;;1.77;0.98;;;21.70;90.90;;;;;;4871305;29;20116;-69
2023/09/25 10:58:08;;;;;;;2.38;1.02;;;21.30;91.80;;;;;;4858916;29;20033;-70
2023/09/25 11:00:38;;;;;;;1.52;0.85;;;21.50;93.40;;;;;;4871520;29;20057;-69
2023/09/25 11:03:05;;;;;;;0.83;0.50;;;21.40;91.90;;;;;;4862136;29;20037;-70
2023/09/25 11:05:34;;;;;;;1.58;1.10;;;21.40;92.80;;;;;;4856189;29;20116;-70
2023/09/25 11:08:01;;;;;;;2.05;0.80;;;21.80;92.10;;;;;;4856149;29;20498;-70
2023/09/25 11:10:32;;;;;;;2.45;0.90;;;21.60;90.30;;;;;;4857712;29;20045;-70
2023/09/25 11:12:59;;;;;;;1.65;0.75;;;21.70;91.30;;;;;;4872493;29;20091;-70
2023/09/25 11:15:26;;;;;;;1.63;1.08;;;21.80;90.90;;;;;;4868874;29;20116;-70
2023/09/25 11:17:52;;;;;;;4.68;1.08;;;21.80;90.70;;;;;;4873100;29;20025;-70
2023/09/25 11:20:22;;;;;;;0.90;0.60;;;22.10;91.00;;;;;;4857367;29;20039;-69
2023/09/25 11:22:49;;;;;;;3.40;0.80;;;22.20;90.50;;;;;;4861323;29;20025;-69
2023/09/25 11:25:16;;;;;;;1.65;0.73;;;22.80;88.20;;;;;;4884453;29;20093;-69
2023/09/25 11:27:56;;;;;;;1.63;1.00;;;23.00;88.60;;;;;;4888939;29;20037;-69
2023/09/25 11:30:27;;;;;;;1.67;0.80;;;23.10;84.20;;;;;;4876133;29;20033;-69
2023/09/25 11:32:53;;;;;;;1.10;0.60;;;23.60;83.40;;;;;;4875311;29;20033;-70
2023/09/25 11:35:22;;;;;;;1.58;0.68;;;23.80;78.60;;;;;;4871950;29;20093;-69
2023/09/25 11:38:02;;;;;;;1.50;1.17;;;24.30;76.70;;;;;;4860649;29;20549;-70
2023/09/25 11:40:30;;;;;;;4.38;0.95;;;24.40;78.20;;;;;;4876201;29;20148;-69
2023/09/25 11:42:57;;;;;;;0.93;0.40;;;25.30;72.60;;;;;;4875180;29;20029;-70
2023/09/25 11:45:24;;;;;;;2.80;0.75;;;25.30;69.50;;;;;;4868799;29;20120;-70
2023/09/25 11:47:50;;;;;;;2.17;0.50;;;25.20;69.80;;;;;;4875288;29;20029;-70
2023/09/25 11:50:18;;;;;;;2.10;0.52;;;25.30;69.80;;;;;;4863991;29;20160;-69
2023/09/25 11:52:46;;;;;;;2.08;0.57;;;25.70;68.40;;;;;;4858731;29;20022;-71
2023/09/25 11:55:14;;;;;;;2.20;0.77;;;25.50;66.30;;;;;;4871230;29;20384;-71
2023/09/25 11:57:42;;;;;;;1.10;0.60;;;27.80;63.20;;;;;;4872551;29;20026;-71
2023/09/25 12:00:18;;;;;;;1.25;0.60;;;26.70;61.50;;;;;;4858990;29;20048;-71
2023/09/25 12:02:48;;;;;;;1.45;0.70;;;25.70;63.20;;;;;;4871580;29;20390;-71
2023/09/25 12:05:20;;;;;;;2.40;0.60;;;27.80;60.10;;;;;;4867786;29;20072;-71
2023/09/25 12:07:47;;;;;;;1.08;0.60;;;27.70;60.50;;;;;;4858067;29;20030;-71
2023/09/25 12:10:20;;;;;;;1.20;0.45;;;27.20;62.10;;;;;;4870498;29;20041;-70
2023/09/25 12:12:49;;;;;;;0.90;0.60;;;26.70;59.20;;;;;;4862269;29;20113;-71
2023/09/25 12:15:16;;;;;;;2.00;0.93;;;25.80;62.30;;;;;;4864441;29;20034;-71
2023/09/25 12:17:43;;;;;;;2.95;0.70;;;26.50;60.50;;;;;;4864557;29;20033;-71
2023/09/25 12:20:15;;;;;;;1.45;0.77;;;26.00;59.60;;;;;;4864013;29;20037;-71
2023/09/25 12:22:45;;;;;;;2.70;0.70;;;26.90;58.50;;;;;;4879013;29;20031;-71
2023/09/25 12:25:14;;;;;;;1.85;0.80;;;26.40;59.00;;;;;;4889104;29;20085;-70
2023/09/25 12:27:42;;;;;;;0.63;0.40;;;27.90;58.30;;;;;;4882833;29;20036;-71
2023/09/25 12:30:10;;;;;;;1.30;0.47;;;26.90;58.60;;;;;;4891098;29;20372;-70
2023/09/25 12:32:38;;;;;;;0.90;0.40;;;28.50;56.70;;;;;;4878924;29;20514;-70
2023/09/25 12:35:08;;;;;;;0.73;0.40;;;27.30;56.60;;;;;;4877371;29;20057;-71
2023/09/25 12:37:34;;;;;;;1.13;0.57;;;28.00;56.60;;;;;;4863561;29;20447;-71
2023/09/25 12:40:00;;;;;;;1.00;0.45;;;26.30;57.10;;;;;;4877661;29;20045;-71
2023/09/25 12:42:26;;;;;;;1.52;0.73;;;25.50;60.60;;;;;;4864544;29;20522;-72
2023/09/25 12:44:52;;;;;;;3.60;0.57;;;25.90;59.50;;;;;;4867179;29;20041;-71
2023/09/25 12:47:18;;;;;;;1.30;0.77;;;26.70;59.30;;;;;;4884292;29;20525;-71
2023/09/25 12:49:44;;;;;;;13.48;6.07;;;26.30;60.70;;;;;;4886044;29;20034;-69
2023/09/25 12:52:11;;;;;;;4.13;0.75;;;26.10;60.80;;;;;;4878790;29;20037;-69